Time;durP1;ratioP1;P1;durP2;ratioP2;P2;SDS_P1;SDS_P2;PMS_P1;PMS_P2;Temp;Humidity;BMP_temperature;BMP_pressure;BME280_temperature;BME280_humidity;BME280_pressure;Samples;Min_cycle;Max_cycle;Signal;HPM_P1;HPM_P2
2023/08/21 00:00:52;;;;;;;11.07;8.50;;;19.70;99.90;;;;;;5011996;28;20495;-52
2023/08/21 00:03:18;;;;;;;8.50;7.67;;;19.70;99.90;;;;;;5012147;28;20436;-52
2023/08/21 00:05:45;;;;;;;7.83;7.03;;;19.70;99.90;;;;;;5010821;28;20554;-52
2023/08/21 00:08:11;;;;;;;8.50;7.60;;;19.60;99.90;;;;;;5009660;28;20459;-52
2023/08/21 00:10:40;;;;;;;9.20;6.63;;;19.70;99.90;;;;;;5013660;28;20564;-52
2023/08/21 00:13:07;;;;;;;9.47;7.30;;;19.60;99.90;;;;;;5013644;28;20463;-53
2023/08/21 00:15:34;;;;;;;9.67;8.20;;;19.60;99.90;;;;;;5009344;28;20482;-53
2023/08/21 00:18:01;;;;;;;10.13;8.60;;;19.60;99.90;;;;;;5010961;28;20496;-51
2023/08/21 00:20:28;;;;;;;11.17;8.13;;;19.60;99.90;;;;;;5011333;28;20467;-53
2023/08/21 00:22:55;;;;;;;9.60;8.03;;;19.50;99.90;;;;;;5013787;28;20470;-52
2023/08/21 00:25:22;;;;;;;17.23;8.40;;;19.50;99.90;;;;;;5013731;28;20519;-52
2023/08/21 00:27:50;;;;;;;9.13;7.07;;;19.50;99.90;;;;;;5011948;28;20491;-52
2023/08/21 00:30:17;;;;;;;13.20;8.37;;;19.50;99.90;;;;;;5015528;28;21200;-52
2023/08/21 00:32:43;;;;;;;9.27;8.33;;;19.50;99.90;;;;;;5014203;28;20495;-52
2023/08/21 00:35:10;;;;;;;11.33;8.53;;;19.50;99.90;;;;;;5016981;28;20511;-52
2023/08/21 00:37:36;;;;;;;10.30;7.90;;;19.40;99.90;;;;;;5011057;28;20602;-51
2023/08/21 00:40:03;;;;;;;8.83;7.67;;;19.40;99.90;;;;;;5015672;28;20820;-53
2023/08/21 00:42:30;;;;;;;11.60;8.20;;;19.30;99.90;;;;;;5012241;28;22436;-51
2023/08/21 00:44:58;;;;;;;10.10;8.70;;;19.40;99.90;;;;;;5011700;28;20582;-52
2023/08/21 00:47:24;;;;;;;14.40;8.20;;;19.40;99.90;;;;;;5005046;28;20503;-51
2023/08/21 00:49:51;;;;;;;8.27;7.40;;;19.30;99.90;;;;;;5009710;28;20558;-51
2023/08/21 00:52:19;;;;;;;15.63;7.83;;;19.30;99.90;;;;;;5012336;28;20495;-51
2023/08/21 00:54:45;;;;;;;9.33;8.00;;;19.30;99.90;;;;;;5019019;28;20486;-51
2023/08/21 00:57:13;;;;;;;12.23;8.30;;;19.30;99.90;;;;;;5012398;28;20488;-52
2023/08/21 00:59:40;;;;;;;11.97;9.07;;;19.30;99.90;;;;;;5008416;28;20920;-52
2023/08/21 01:02:07;;;;;;;13.23;7.60;;;19.30;99.90;;;;;;5009843;28;20570;-51
2023/08/21 01:04:34;;;;;;;11.00;7.90;;;19.40;99.90;;;;;;5016086;28;20507;-52
2023/08/21 01:07:01;;;;;;;12.97;8.10;;;19.40;99.90;;;;;;5011279;28;20460;-51
2023/08/21 01:09:34;;;;;;;12.33;8.73;;;19.50;99.90;;;;;;5006918;28;20518;-51
2023/08/21 01:12:10;;;;;;;8.80;7.97;;;19.40;99.90;;;;;;5009512;28;20459;-51
2023/08/21 01:14:46;;;;;;;14.70;8.60;;;19.50;99.90;;;;;;5007864;28;20494;-52
2023/08/21 01:17:16;;;;;;;15.73;8.60;;;19.50;99.90;;;;;;5011124;28;20487;-52
2023/08/21 01:19:45;;;;;;;13.63;9.10;;;19.50;99.90;;;;;;5010786;28;20487;-51
2023/08/21 01:22:12;;;;;;;9.57;8.00;;;19.50;99.90;;;;;;5010279;28;20521;-52
2023/08/21 01:24:40;;;;;;;12.60;9.00;;;19.60;99.90;;;;;;5018413;28;20479;-51
2023/08/21 01:27:07;;;;;;;14.27;8.87;;;19.60;99.90;;;;;;5017312;28;20494;-51
2023/08/21 01:29:34;;;;;;;10.20;7.97;;;19.60;99.90;;;;;;5015534;28;20860;-52
2023/08/21 01:32:07;;;;;;;12.90;8.50;;;19.60;99.90;;;;;;5012344;28;20502;-51
2023/08/21 01:34:34;;;;;;;13.33;8.60;;;19.50;99.90;;;;;;5005549;28;20483;-51
2023/08/21 01:37:01;;;;;;;8.77;7.97;;;19.60;99.90;;;;;;5008747;28;20463;-52
2023/08/21 01:39:29;;;;;;;11.40;8.30;;;19.60;99.90;;;;;;5012332;28;20487;-57
2023/08/21 01:41:58;;;;;;;11.33;9.57;;;19.60;99.90;;;;;;5011680;28;20526;-58
2023/08/21 01:44:26;;;;;;;19.60;9.60;;;19.60;99.90;;;;;;5009552;28;20522;-57
2023/08/21 01:46:52;;;;;;;10.20;7.70;;;19.70;99.90;;;;;;5016209;28;20571;-57
2023/08/21 01:49:19;;;;;;;13.80;9.10;;;19.60;99.90;;;;;;5017417;28;20491;-57
2023/08/21 01:51:46;;;;;;;14.80;9.40;;;19.70;99.90;;;;;;5012805;28;20525;-57
2023/08/21 01:54:12;;;;;;;10.77;8.33;;;19.80;99.90;;;;;;5008636;28;20483;-57
2023/08/21 01:56:39;;;;;;;9.97;8.93;;;19.80;99.90;;;;;;5014366;28;20491;-57
2023/08/21 01:59:07;;;;;;;17.07;9.80;;;19.70;99.90;;;;;;5013939;28;20551;-57
2023/08/21 02:01:34;;;;;;;10.73;9.10;;;19.70;99.90;;;;;;5013181;28;20506;-57
2023/08/21 02:04:00;;;;;;;10.17;9.17;;;19.70;99.90;;;;;;5012458;28;21008;-57
2023/08/21 02:06:27;;;;;;;19.10;9.30;;;19.80;99.90;;;;;;5011557;28;20591;-57
2023/08/21 02:08:53;;;;;;;12.33;9.73;;;19.70;99.90;;;;;;5012834;28;20502;-55
2023/08/21 02:11:20;;;;;;;13.33;9.63;;;19.80;99.90;;;;;;5016811;28;20471;-55
2023/08/21 02:13:46;;;;;;;10.23;9.17;;;19.70;99.90;;;;;;5010552;28;20973;-55
2023/08/21 02:16:14;;;;;;;9.13;8.13;;;19.80;99.90;;;;;;5013245;28;20511;-55
2023/08/21 02:18:41;;;;;;;10.83;9.27;;;19.80;99.90;;;;;;5013941;28;20542;-55
2023/08/21 02:21:07;;;;;;;9.03;8.13;;;19.70;99.90;;;;;;5013062;28;20495;-55
2023/08/21 02:23:34;;;;;;;13.00;10.47;;;19.70;99.90;;;;;;5011195;28;20575;-56
2023/08/21 02:26:00;;;;;;;13.60;10.87;;;19.80;99.90;;;;;;5013468;28;20511;-55
2023/08/21 02:28:27;;;;;;;15.00;8.63;;;19.80;99.90;;;;;;5011594;28;20930;-55
2023/08/21 02:30:53;;;;;;;9.73;8.73;;;19.80;99.90;;;;;;5012202;28;20446;-56
2023/08/21 02:33:21;;;;;;;15.17;8.70;;;19.80;99.90;;;;;;5013132;28;20491;-55
2023/08/21 02:35:48;;;;;;;9.47;8.40;;;19.80;99.90;;;;;;5010920;28;20495;-55
2023/08/21 02:38:14;;;;;;;11.37;8.30;;;19.80;99.90;;;;;;5011745;28;20490;-56
2023/08/21 02:40:41;;;;;;;18.67;8.73;;;19.80;99.90;;;;;;5013485;28;20474;-55
2023/08/21 02:43:07;;;;;;;11.57;8.47;;;19.80;99.90;;;;;;5011069;28;20885;-55
2023/08/21 02:45:34;;;;;;;11.13;8.73;;;19.80;99.90;;;;;;5014221;28;20973;-55
2023/08/21 02:48:00;;;;;;;10.03;9.03;;;19.90;99.90;;;;;;5016415;28;20471;-55
2023/08/21 02:50:28;;;;;;;13.63;8.83;;;19.90;99.90;;;;;;5010464;28;20973;-55
2023/08/21 02:52:56;;;;;;;11.57;8.23;;;19.90;99.90;;;;;;5011768;28;20900;-55
2023/08/21 02:55:22;;;;;;;12.70;9.30;;;20.00;99.90;;;;;;5004691;28;20514;-55
2023/08/21 02:57:49;;;;;;;11.57;9.07;;;20.00;99.90;;;;;;5011124;28;20513;-55
2023/08/21 03:00:16;;;;;;;9.90;8.97;;;19.90;99.90;;;;;;5012997;28;20479;-58
2023/08/21 03:02:43;;;;;;;12.63;9.03;;;20.00;99.90;;;;;;5015606;28;20459;-57
2023/08/21 03:05:10;;;;;;;10.57;9.53;;;20.00;99.90;;;;;;5008871;28;20487;-57
2023/08/21 03:07:38;;;;;;;9.20;8.20;;;20.00;99.90;;;;;;5013335;28;20518;-57
2023/08/21 03:10:05;;;;;;;11.50;9.00;;;20.00;99.90;;;;;;5012203;28;20487;-56
2023/08/21 03:12:32;;;;;;;14.53;9.40;;;20.10;99.90;;;;;;5012115;28;20498;-57
2023/08/21 03:14:58;;;;;;;17.50;9.03;;;20.00;99.90;;;;;;5011391;28;20530;-57
2023/08/21 03:17:25;;;;;;;9.27;8.40;;;20.10;99.90;;;;;;5012090;28;20518;-56
2023/08/21 03:19:51;;;;;;;12.00;9.00;;;20.00;99.90;;;;;;5014507;28;20550;-57
2023/08/21 03:22:18;;;;;;;9.17;7.93;;;20.00;99.90;;;;;;5012802;28;20497;-56
2023/08/21 03:24:46;;;;;;;11.33;8.20;;;20.00;99.90;;;;;;5011707;28;20456;-56
2023/08/21 03:27:12;;;;;;;9.07;7.70;;;19.90;99.90;;;;;;5011020;28;20495;-57
2023/08/21 03:29:39;;;;;;;8.23;7.53;;;19.90;99.90;;;;;;5012745;28;20444;-57
2023/08/21 03:32:06;;;;;;;18.13;8.53;;;19.90;99.90;;;;;;5010716;28;20955;-57
2023/08/21 03:34:32;;;;;;;12.93;8.30;;;19.80;99.90;;;;;;5011816;28;20498;-58
2023/08/21 03:36:59;;;;;;;8.47;7.57;;;19.80;99.90;;;;;;5011363;28;20555;-55
2023/08/21 03:39:25;;;;;;;9.67;8.70;;;19.80;99.90;;;;;;5010629;28;20919;-55
2023/08/21 03:41:53;;;;;;;9.90;8.57;;;19.70;99.90;;;;;;5011948;28;20550;-55
2023/08/21 03:44:20;;;;;;;10.07;7.60;;;19.70;99.90;;;;;;5010952;28;20483;-55
2023/08/21 03:46:46;;;;;;;8.73;7.93;;;19.60;99.90;;;;;;5011431;28;20583;-55
2023/08/21 03:49:13;;;;;;;9.43;8.43;;;19.70;99.90;;;;;;5010595;28;20499;-55
2023/08/21 03:51:39;;;;;;;8.87;7.97;;;19.60;99.90;;;;;;5008921;28;20921;-55
2023/08/21 03:54:06;;;;;;;17.83;7.83;;;19.60;99.90;;;;;;5008520;28;20518;-55
2023/08/21 03:56:32;;;;;;;10.17;8.43;;;19.60;99.90;;;;;;5010520;28;20513;-55
2023/08/21 03:59:00;;;;;;;10.93;8.20;;;19.50;99.90;;;;;;5011754;28;20555;-55
2023/08/21 04:01:27;;;;;;;10.40;8.13;;;19.50;99.90;;;;;;5017919;28;21009;-54
2023/08/21 04:03:53;;;;;;;10.27;8.17;;;19.50;99.90;;;;;;5007665;28;20499;-54
2023/08/21 04:06:20;;;;;;;17.40;9.00;;;19.50;99.90;;;;;;5011838;28;21031;-55
2023/08/21 04:08:46;;;;;;;14.00;8.60;;;19.40;99.90;;;;;;5011496;28;20503;-55
2023/08/21 04:11:13;;;;;;;15.77;8.60;;;19.40;99.90;;;;;;5006495;28;20953;-54
2023/08/21 04:13:39;;;;;;;10.03;7.87;;;19.40;99.90;;;;;;5015643;28;20486;-55
2023/08/21 04:16:08;;;;;;;8.77;7.97;;;19.30;99.90;;;;;;5008032;28;20591;-54
2023/08/21 04:18:36;;;;;;;9.07;8.17;;;19.30;99.90;;;;;;5010979;28;20444;-55
2023/08/21 04:21:03;;;;;;;11.03;8.70;;;19.30;99.90;;;;;;5011999;28;20447;-56
2023/08/21 04:23:29;;;;;;;13.60;9.67;;;19.30;99.90;;;;;;5011693;28;20508;-55
2023/08/21 04:26:01;;;;;;;13.70;9.00;;;19.30;99.90;;;;;;5019528;28;20843;-55
2023/08/21 04:28:27;;;;;;;12.40;9.77;;;19.30;99.90;;;;;;5008120;28;20502;-55
2023/08/21 04:30:54;;;;;;;10.80;9.30;;;19.20;99.90;;;;;;5016263;28;20478;-55
2023/08/21 04:33:22;;;;;;;13.03;9.57;;;19.20;99.90;;;;;;5013909;28;20463;-55
2023/08/21 04:35:49;;;;;;;11.70;9.50;;;19.20;99.90;;;;;;5010864;28;20503;-57
2023/08/21 04:38:15;;;;;;;13.87;10.37;;;19.20;99.90;;;;;;5012006;28;20553;-57
2023/08/21 04:40:42;;;;;;;11.30;9.60;;;19.20;99.90;;;;;;5012130;28;20478;-57
2023/08/21 04:43:08;;;;;;;20.57;9.67;;;19.10;99.90;;;;;;5011198;28;20502;-59
2023/08/21 04:45:37;;;;;;;17.07;10.77;;;19.10;99.90;;;;;;5009968;28;20495;-57
2023/08/21 04:48:04;;;;;;;14.23;10.60;;;19.10;99.90;;;;;;5010211;28;20468;-58
2023/08/21 04:50:32;;;;;;;24.93;16.67;;;19.10;99.90;;;;;;5012389;28;20483;-58
2023/08/21 04:52:59;;;;;;;44.23;31.10;;;19.10;99.90;;;;;;5011925;28;20475;-58
2023/08/21 04:55:25;;;;;;;44.23;20.40;;;19.10;99.90;;;;;;5009895;28;20572;-58
2023/08/21 04:57:52;;;;;;;27.20;19.60;;;19.10;99.90;;;;;;5010945;28;20542;-57
2023/08/21 05:00:18;;;;;;;29.77;19.57;;;19.10;99.90;;;;;;5014347;28;21028;-58
2023/08/21 05:02:45;;;;;;;37.70;20.33;;;19.10;99.90;;;;;;5009070;28;20472;-58
2023/08/21 05:05:11;;;;;;;28.53;16.87;;;19.10;99.90;;;;;;5010850;28;20491;-59
2023/08/21 05:07:39;;;;;;;17.93;14.30;;;19.10;1.40;;;;;;5028687;28;20474;-58
2023/08/21 05:10:07;;;;;;;21.90;13.73;;;19.20;1.40;;;;;;5015001;28;20900;-57
2023/08/21 05:12:33;;;;;;;25.23;13.50;;;19.20;99.90;;;;;;5013674;28;20980;-58
2023/08/21 05:15:00;;;;;;;15.70;11.13;;;19.20;99.90;;;;;;5014969;28;20487;-57
2023/08/21 05:17:26;;;;;;;18.93;11.60;;;19.10;99.90;;;;;;5023628;28;20506;-57
2023/08/21 05:19:53;;;;;;;17.03;12.03;;;19.20;99.90;;;;;;5013977;28;20463;-57
2023/08/21 05:22:19;;;;;;;16.87;11.43;;;19.20;99.90;;;;;;5014165;28;20463;-59
2023/08/21 05:24:47;;;;;;;16.43;12.30;;;19.20;99.90;;;;;;5013630;28;20492;-59
2023/08/21 05:27:14;;;;;;;13.60;11.03;;;19.20;99.90;;;;;;5014240;28;20587;-60
2023/08/21 05:29:40;;;;;;;17.73;11.60;;;19.30;99.90;;;;;;5009887;28;20977;-58
2023/08/21 05:32:07;;;;;;;19.23;11.33;;;19.40;99.90;;;;;;5013063;28;20501;-58
2023/08/21 05:34:34;;;;;;;14.23;11.60;;;19.40;99.90;;;;;;5007661;28;20495;-58
2023/08/21 05:37:00;;;;;;;16.13;9.60;;;19.40;99.90;;;;;;5020502;28;20977;-58
2023/08/21 05:39:27;;;;;;;11.70;10.50;;;19.40;99.90;;;;;;5015918;28;21005;-58
2023/08/21 05:41:54;;;;;;;12.80;10.73;;;19.40;99.90;;;;;;5015146;28;20486;-58
2023/08/21 05:44:21;;;;;;;13.93;11.10;;;19.40;99.90;;;;;;5012817;28;20998;-59
2023/08/21 05:46:48;;;;;;;15.43;11.03;;;19.40;99.90;;;;;;5013663;28;20491;-58
2023/08/21 05:49:14;;;;;;;13.30;10.03;;;19.50;99.90;;;;;;5013773;28;20525;-58
2023/08/21 05:51:41;;;;;;;13.53;10.17;;;19.50;99.90;;;;;;5012548;28;20491;-58
2023/08/21 05:54:07;;;;;;;11.27;10.03;;;19.50;99.90;;;;;;5012170;28;20527;-59
2023/08/21 05:56:34;;;;;;;11.27;10.07;;;19.50;99.90;;;;;;5014804;28;20527;-59
2023/08/21 05:59:02;;;;;;;14.93;9.93;;;19.50;99.90;;;;;;5013040;28;21007;-59
2023/08/21 06:01:28;;;;;;;15.50;10.30;;;19.60;99.90;;;;;;5014267;28;20498;-59
2023/08/21 06:03:55;;;;;;;16.63;10.93;;;19.70;99.90;;;;;;5012028;28;20495;-59
2023/08/21 06:06:21;;;;;;;13.37;10.30;;;19.70;99.90;;;;;;5012432;28;20487;-59
2023/08/21 06:08:48;;;;;;;12.77;10.90;;;19.70;99.90;;;;;;5014206;28;20451;-59
2023/08/21 06:11:15;;;;;;;10.97;9.87;;;19.70;99.90;;;;;;5014757;28;20475;-58
2023/08/21 06:13:41;;;;;;;14.30;10.13;;;19.80;99.90;;;;;;5011109;28;20468;-59
2023/08/21 06:16:09;;;;;;;18.60;9.40;;;19.80;99.90;;;;;;5011227;28;21221;-59
2023/08/21 06:18:36;;;;;;;14.63;9.97;;;19.90;99.90;;;;;;5017125;28;20499;-59
2023/08/21 06:21:02;;;;;;;18.23;11.50;;;19.90;99.90;;;;;;5002415;28;20554;-59
2023/08/21 06:23:29;;;;;;;10.57;9.30;;;20.00;99.90;;;;;;5010484;28;20504;-58
2023/08/21 06:25:55;;;;;;;15.33;10.07;;;20.00;99.90;;;;;;5016667;28;20933;-59
2023/08/21 06:28:22;;;;;;;18.77;9.90;;;20.10;99.90;;;;;;5021011;28;20491;-59
2023/08/21 06:30:56;;;;;;;12.20;8.67;;;20.20;99.90;;;;;;5014635;28;20499;-55
2023/08/21 06:33:24;;;;;;;10.20;9.17;;;20.30;99.90;;;;;;5012375;28;20479;-55
2023/08/21 06:35:50;;;;;;;16.33;9.10;;;20.40;99.90;;;;;;5009743;28;20495;-55
2023/08/21 06:38:17;;;;;;;10.03;8.87;;;20.50;99.90;;;;;;5006506;28;20503;-56
2023/08/21 06:40:45;;;;;;;16.10;9.57;;;20.60;99.90;;;;;;5005536;28;20465;-56
2023/08/21 06:43:12;;;;;;;11.40;9.30;;;20.70;99.90;;;;;;5001438;28;20559;-55
2023/08/21 06:45:39;;;;;;;13.40;10.20;;;20.80;99.90;;;;;;5010608;28;20482;-55
2023/08/21 06:48:05;;;;;;;12.97;9.33;;;20.80;99.90;;;;;;5011868;28;20463;-56
2023/08/21 06:50:33;;;;;;;12.07;9.73;;;21.00;99.90;;;;;;4998582;28;20464;-56
2023/08/21 06:53:00;;;;;;;17.10;9.47;;;21.10;99.90;;;;;;5003138;28;20547;-55
2023/08/21 06:55:26;;;;;;;12.13;9.90;;;21.20;99.90;;;;;;5007590;28;20558;-56
2023/08/21 06:57:53;;;;;;;14.80;9.57;;;21.30;99.90;;;;;;5005125;28;20457;-55
2023/08/21 07:00:20;;;;;;;14.23;8.70;;;21.40;99.90;;;;;;5009114;28;20551;-55
2023/08/21 07:02:46;;;;;;;17.50;8.27;;;21.40;99.90;;;;;;5013702;28;20463;-56
2023/08/21 07:05:13;;;;;;;16.37;8.40;;;21.60;99.90;;;;;;5009673;28;20586;-56
2023/08/21 07:07:41;;;;;;;15.07;8.30;;;21.70;99.90;;;;;;5007545;28;20582;-55
2023/08/21 07:10:09;;;;;;;13.60;7.13;;;21.80;20.70;;;;;;5007353;28;21009;-57
2023/08/21 07:12:35;;;;;;;15.10;7.50;;;21.80;25.20;;;;;;5009274;28;20463;-55
2023/08/21 07:15:02;;;;;;;12.30;8.20;;;21.90;24.20;;;;;;5008646;28;20511;-55
2023/08/21 07:17:29;;;;;;;22.00;8.33;;;22.00;25.10;;;;;;5011568;28;20878;-55
2023/08/21 07:19:55;;;;;;;14.47;6.60;;;22.10;29.50;;;;;;5005784;28;20487;-55
2023/08/21 07:22:22;;;;;;;9.63;6.00;;;22.20;46.70;;;;;;5011968;28;20494;-55
2023/08/21 07:24:50;;;;;;;11.53;5.80;;;22.30;76.30;;;;;;5008699;28;20941;-55
2023/08/21 07:27:16;;;;;;;6.93;6.23;;;22.40;91.90;;;;;;5016334;28;20514;-55
2023/08/21 07:29:43;;;;;;;15.53;5.90;;;22.40;94.70;;;;;;5016208;28;20929;-55
2023/08/21 07:32:10;;;;;;;20.93;5.97;;;22.40;85.00;;;;;;5007225;28;20578;-55
2023/08/21 07:34:36;;;;;;;9.63;5.60;;;22.50;85.00;;;;;;5008703;28;20957;-56
2023/08/21 07:37:03;;;;;;;6.80;5.10;;;22.50;94.40;;;;;;5013583;28;20498;-56
2023/08/21 07:39:30;;;;;;;7.47;5.10;;;22.50;99.90;;;;;;5011924;28;20460;-56
2023/08/21 07:41:58;;;;;;;6.87;4.83;;;22.60;99.90;;;;;;5010925;28;20506;-55
2023/08/21 07:44:24;;;;;;;7.93;4.63;;;22.80;99.90;;;;;;5009644;28;20468;-55
2023/08/21 07:46:51;;;;;;;4.73;3.40;;;22.80;99.90;;;;;;5006745;28;20974;-55
2023/08/21 07:49:17;;;;;;;10.63;4.13;;;23.00;99.90;;;;;;5007723;28;20470;-57
2023/08/21 07:51:44;;;;;;;6.60;3.30;;;23.00;99.90;;;;;;5006698;28;20994;-56
2023/08/21 07:54:11;;;;;;;12.73;3.60;;;23.00;99.90;;;;;;5012764;28;20468;-56
2023/08/21 07:56:40;;;;;;;8.30;3.10;;;22.90;99.90;;;;;;5009023;28;20920;-56
2023/08/21 07:59:08;;;;;;;9.77;3.37;;;22.90;99.90;;;;;;5010511;28;20459;-55
2023/08/21 08:01:35;;;;;;;4.40;3.50;;;22.90;99.90;;;;;;5008232;28;20467;-57
2023/08/21 08:04:02;;;;;;;4.63;2.23;;;22.90;99.90;;;;;;5004637;28;20529;-56
2023/08/21 08:06:28;;;;;;;5.23;2.70;;;22.80;99.90;;;;;;5004644;28;20541;-55
2023/08/21 08:08:55;;;;;;;4.67;2.40;;;22.90;99.90;;;;;;5017164;28;20513;-56
2023/08/21 08:11:22;;;;;;;5.80;2.17;;;23.00;77.60;;;;;;5010530;28;20539;-56
2023/08/21 08:13:48;;;;;;;3.53;2.37;;;23.10;21.40;;;;;;5008652;28;20539;-56
2023/08/21 08:16:17;;;;;;;7.80;2.83;;;23.30;56.00;;;;;;5012226;28;20483;-56
2023/08/21 08:18:43;;;;;;;4.00;1.83;;;23.40;77.00;;;;;;5005891;28;20462;-56
2023/08/21 08:21:10;;;;;;;4.87;2.00;;;23.50;99.90;;;;;;5011127;28;20514;-55
2023/08/21 08:23:37;;;;;;;4.73;2.07;;;23.60;99.90;;;;;;5009848;28;20464;-55
2023/08/21 08:26:04;;;;;;;7.00;2.43;;;23.70;99.90;;;;;;5008445;28;20567;-55
2023/08/21 08:28:30;;;;;;;3.00;2.30;;;23.80;99.90;;;;;;5005040;28;20578;-56
2023/08/21 08:30:57;;;;;;;3.60;2.17;;;23.80;99.90;;;;;;5008958;28;20463;-55
2023/08/21 08:33:25;;;;;;;9.13;2.30;;;24.00;94.00;;;;;;5004995;28;20467;-56
2023/08/21 08:35:51;;;;;;;3.20;2.63;;;24.20;93.80;;;;;;5002112;28;20494;-55
2023/08/21 08:38:18;;;;;;;5.23;2.50;;;24.40;99.90;;;;;;5017919;28;20562;-55
2023/08/21 08:40:47;;;;;;;7.13;2.23;;;24.60;99.90;;;;;;5013397;28;20508;-55
2023/08/21 08:43:14;;;;;;;3.43;1.67;;;24.80;99.90;;;;;;5022005;28;20534;-56
2023/08/21 08:45:42;;;;;;;7.00;2.50;;;24.90;99.90;;;;;;5012497;28;20509;-55
2023/08/21 08:48:08;;;;;;;5.47;2.53;;;25.00;99.90;;;;;;5019685;28;20546;-56
2023/08/21 08:50:39;;;;;;;2.97;1.73;;;24.90;99.90;;;;;;5014334;28;20495;-55
2023/08/21 08:53:08;;;;;;;4.80;2.30;;;24.80;99.90;;;;;;5015465;28;20507;-57
2023/08/21 08:55:34;;;;;;;3.00;2.00;;;24.80;99.90;;;;;;5012747;28;20487;-56
2023/08/21 08:58:01;;;;;;;10.90;1.73;;;24.90;99.90;;;;;;5010800;28;20479;-56
2023/08/21 09:00:27;;;;;;;8.10;1.87;;;24.90;99.90;;;;;;5010561;28;20902;-55
2023/08/21 09:02:56;;;;;;;2.57;1.43;;;25.00;99.90;;;;;;5009618;28;20499;-56
2023/08/21 09:05:22;;;;;;;3.00;1.67;;;25.10;99.90;;;;;;5016014;28;20901;-55
2023/08/21 09:08:03;;;;;;;6.27;1.87;;;25.10;99.90;;;;;;5007968;28;20519;-56
2023/08/21 09:10:30;;;;;;;4.43;2.00;;;25.20;99.90;;;;;;5008797;28;20463;-55
2023/08/21 09:12:58;;;;;;;3.93;1.93;;;25.10;99.90;;;;;;5010305;28;20586;-56
2023/08/21 09:15:29;;;;;;;3.57;1.80;;;25.10;99.90;;;;;;5006486;28;20562;-56
2023/08/21 09:17:56;;;;;;;2.43;1.47;;;25.10;99.90;;;;;;5008742;28;20456;-55
2023/08/21 09:20:22;;;;;;;3.83;1.50;;;25.20;99.90;;;;;;5009059;28;20455;-56
2023/08/21 09:22:54;;;;;;;3.83;2.13;;;25.20;99.90;;;;;;5010790;28;20503;-56
2023/08/21 09:25:24;;;;;;;7.83;2.40;;;25.40;99.90;;;;;;5012486;28;20475;-55
2023/08/21 09:27:53;;;;;;;8.57;1.73;;;25.30;99.90;;;;;;5006006;28;20479;-56
2023/08/21 09:30:20;;;;;;;5.70;1.90;;;25.30;99.90;;;;;;5009523;28;20462;-56
2023/08/21 09:32:54;;;;;;;3.90;1.90;;;25.50;99.90;;;;;;5007673;28;20977;-57
2023/08/21 09:35:21;;;;;;;4.37;1.80;;;25.50;99.90;;;;;;5005340;28;20490;-58
2023/08/21 09:37:48;;;;;;;3.90;1.50;;;25.40;99.90;;;;;;5005763;28;20544;-59
2023/08/21 09:40:16;;;;;;;2.80;1.50;;;25.20;99.90;;;;;;5002891;28;20470;-58
2023/08/21 09:42:44;;;;;;;4.83;1.27;;;25.20;99.90;;;;;;5004649;28;20554;-57
2023/08/21 09:45:10;;;;;;;8.33;2.10;;;25.20;99.90;;;;;;5004754;28;20504;-58
2023/08/21 09:47:38;;;;;;;7.17;2.27;;;25.10;99.90;;;;;;5010219;28;20557;-60
2023/08/21 09:50:05;;;;;;;5.87;1.90;;;25.20;99.90;;;;;;5004853;28;20509;-58
2023/08/21 09:52:32;;;;;;;6.80;2.40;;;25.00;99.90;;;;;;5011629;28;21027;-58
2023/08/21 09:54:59;;;;;;;3.30;1.80;;;25.10;99.90;;;;;;5014916;28;21217;-58
2023/08/21 09:57:28;;;;;;;11.73;2.23;;;25.20;99.90;;;;;;5008399;28;21025;-58
2023/08/21 09:59:56;;;;;;;3.83;1.57;;;25.30;99.90;;;;;;5006711;28;20678;-59
2023/08/21 10:02:24;;;;;;;5.80;1.57;;;25.20;99.90;;;;;;5007589;28;20494;-58
2023/08/21 10:04:52;;;;;;;3.77;2.13;;;25.10;99.90;;;;;;5003044;28;20498;-59
2023/08/21 10:07:25;;;;;;;4.00;1.50;;;25.10;99.90;;;;;;5013749;28;20558;-58
2023/08/21 10:09:53;;;;;;;4.17;1.47;;;25.00;99.90;;;;;;5015099;28;20518;-58
2023/08/21 10:12:21;;;;;;;4.57;1.97;;;25.00;99.90;;;;;;5005825;28;20467;-58
2023/08/21 10:14:48;;;;;;;4.07;1.63;;;25.10;99.90;;;;;;5007240;28;20547;-58
2023/08/21 10:17:16;;;;;;;6.13;1.73;;;25.40;99.90;;;;;;5012354;28;20467;-58
2023/08/21 10:19:51;;;;;;;6.70;1.90;;;25.60;99.90;;;;;;5002535;28;20468;-58
2023/08/21 10:22:39;;;;;;;6.10;1.80;;;26.00;99.90;;;;;;5011584;28;20542;-58
2023/08/21 10:25:15;;;;;;;4.50;1.70;;;26.40;99.90;;;;;;5011738;28;21032;-57
2023/08/21 10:27:42;;;;;;;5.40;1.60;;;27.30;99.90;;;;;;5012216;28;20478;-58
2023/08/21 10:30:14;;;;;;;4.83;2.03;;;27.80;99.90;;;;;;5012922;28;20469;-58
2023/08/21 10:32:47;;;;;;;2.90;1.70;;;28.40;99.90;;;;;;5009539;28;20456;-59
2023/08/21 10:35:20;;;;;;;2.30;1.60;;;28.60;99.90;;;;;;5013688;28;20526;-57
2023/08/21 10:38:12;;;;;;;2.80;1.60;;;28.10;99.90;;;;;;5003262;28;20452;-58
2023/08/21 10:40:39;;;;;;;2.83;1.30;;;27.20;99.90;;;;;;5008486;28;20467;-58
2023/08/21 10:43:39;;;;;;;2.20;1.20;;;27.10;99.90;;;;;;5012519;28;20459;-58
2023/08/21 10:46:05;;;;;;;3.70;1.20;;;26.70;99.90;;;;;;5014377;28;20478;-56
2023/08/21 10:48:33;;;;;;;7.10;1.07;;;26.60;99.90;;;;;;5012942;28;20491;-57
2023/08/21 10:51:04;;;;;;;4.17;1.33;;;26.40;99.90;;;;;;5012022;28;20491;-57
2023/08/21 10:53:31;;;;;;;5.20;1.57;;;26.20;99.90;;;;;;5011793;28;20474;-57
2023/08/21 10:55:58;;;;;;;5.27;1.50;;;25.90;99.90;;;;;;5007901;28;20989;-56
2023/08/21 10:58:24;;;;;;;8.87;1.70;;;26.00;99.90;;;;;;5009153;28;20455;-61
2023/08/21 11:00:58;;;;;;;2.73;1.30;;;25.90;99.90;;;;;;5014517;28;20490;-57
2023/08/21 11:03:24;;;;;;;7.50;1.80;;;25.90;99.90;;;;;;5008878;28;20462;-58
2023/08/21 11:06:03;;;;;;;10.40;1.77;;;26.20;99.90;;;;;;5009214;28;20483;-57
2023/08/21 11:08:30;;;;;;;3.97;1.57;;;26.20;99.90;;;;;;5019197;28;20494;-58
2023/08/21 11:10:56;;;;;;;5.00;1.47;;;26.30;99.90;;;;;;5010988;28;20548;-57
2023/08/21 11:13:24;;;;;;;3.80;1.20;;;26.30;99.90;;;;;;5013072;28;21026;-57
2023/08/21 11:15:58;;;;;;;5.07;1.30;;;26.30;1.40;;;;;;5015294;28;20483;-59
2023/08/21 11:18:30;;;;;;;3.50;1.20;;;26.40;99.90;;;;;;5003452;28;21063;-57
2023/08/21 11:21:09;;;;;;;4.00;2.00;;;26.40;99.90;;;;;;5012444;28;20491;-58
2023/08/21 11:23:36;;;;;;;4.47;1.53;;;26.30;99.90;;;;;;5007049;28;20461;-58
2023/08/21 11:26:04;;;;;;;4.97;1.90;;;26.30;99.90;;;;;;5007458;28;20507;-55
2023/08/21 11:28:31;;;;;;;4.37;1.60;;;26.20;99.90;;;;;;5020691;28;20930;-55
2023/08/21 11:30:58;;;;;;;8.60;1.57;;;26.10;99.90;;;;;;5011858;28;20977;-54
2023/08/21 11:33:26;;;;;;;2.57;1.50;;;26.00;99.90;;;;;;5001633;28;20554;-56
2023/08/21 11:35:53;;;;;;;6.43;1.70;;;25.90;99.90;;;;;;5009603;28;20526;-54
2023/08/21 11:38:23;;;;;;;2.97;1.53;;;25.90;99.90;;;;;;5006448;28;21017;-55
2023/08/21 11:40:57;;;;;;;8.30;1.77;;;25.90;99.90;;;;;;5006343;28;20494;-55
2023/08/21 11:43:35;;;;;;;8.33;1.67;;;25.80;99.90;;;;;;5015167;28;20455;-55
2023/08/21 11:46:02;;;;;;;8.33;1.20;;;25.70;99.90;;;;;;5012669;28;20494;-55
2023/08/21 11:48:29;;;;;;;3.47;1.73;;;25.80;99.90;;;;;;5012619;28;20487;-55
2023/08/21 11:50:56;;;;;;;7.93;1.77;;;25.90;99.90;;;;;;5024536;28;20490;-55
2023/08/21 11:53:39;;;;;;;4.87;1.47;;;26.00;99.90;;;;;;5010070;28;20495;-55
2023/08/21 11:56:11;;;;;;;11.83;1.33;;;26.10;99.90;;;;;;5009611;28;20927;-55
2023/08/21 11:58:39;;;;;;;4.97;1.00;;;26.00;99.90;;;;;;5015568;28;20872;-54
2023/08/21 12:01:06;;;;;;;11.63;1.60;;;26.00;99.90;;;;;;5008106;28;20474;-54
2023/08/21 12:03:37;;;;;;;4.30;1.30;;;26.00;99.90;;;;;;5009338;28;21037;-55
2023/08/21 12:06:06;;;;;;;5.73;1.70;;;25.90;99.90;;;;;;5009580;28;20900;-55
2023/08/21 12:08:33;;;;;;;4.23;1.13;;;26.00;99.90;;;;;;5010962;28;20558;-55
2023/08/21 12:11:01;;;;;;;4.10;1.67;;;26.10;99.90;;;;;;5012378;28;20541;-54
2023/08/21 12:13:28;;;;;;;8.30;1.80;;;26.10;99.90;;;;;;5010117;28;20476;-54
2023/08/21 12:15:54;;;;;;;9.93;1.30;;;26.20;99.90;;;;;;5017103;28;21056;-55
2023/08/21 12:18:21;;;;;;;9.53;1.10;;;26.40;99.90;;;;;;5009377;28;20464;-56
2023/08/21 12:20:48;;;;;;;7.90;1.43;;;26.50;99.90;;;;;;5017739;28;20525;-54
2023/08/21 12:23:15;;;;;;;4.93;1.40;;;26.40;99.90;;;;;;5012682;28;21051;-55
2023/08/21 12:25:42;;;;;;;2.87;1.20;;;26.50;99.90;;;;;;5011998;28;20591;-55
2023/08/21 12:28:10;;;;;;;2.83;1.40;;;26.60;99.90;;;;;;5010774;28;20521;-55
2023/08/21 12:30:37;;;;;;;5.90;1.43;;;26.70;99.90;;;;;;5009081;28;20459;-56
2023/08/21 12:33:04;;;;;;;1.83;0.90;;;26.90;99.90;;;;;;5015661;28;20504;-54
2023/08/21 12:35:30;;;;;;;11.20;1.40;;;27.20;99.90;;;;;;5007204;28;20514;-55
2023/08/21 12:38:04;;;;;;;5.50;0.73;;;27.50;99.90;;;;;;5004534;28;20895;-54
2023/08/21 12:40:31;;;;;;;9.40;1.13;;;27.90;99.90;;;;;;5008013;28;20500;-54
2023/08/21 12:42:57;;;;;;;2.33;1.10;;;28.10;99.90;;;;;;5010619;28;20492;-55